TimeMDT,TemperatureF,Dew PointF,Humidity,Sea Level PressureIn,VisibilityMPH,Wind Direction,Wind SpeedMPH,Gust SpeedMPH,PrecipitationIn,Events,Conditions,WindDirDegrees,DateUTC
12:55 AM,13.6,7.9,78,30.04,10.0,WNW,5.8,-,N/A,,Clear,290,2013-04-11 06:55:00
1:55 AM,12.7,7.0,78,30.01,10.0,WNW,5.8,-,N/A,,Clear,300,2013-04-11 07:55:00
2:55 AM,10.8,5.5,79,29.98,10.0,WNW,6.9,-,N/A,,Clear,300,2013-04-11 08:55:00
3:55 AM,15.6,9.1,76,29.95,10.0,WNW,4.6,-,N/A,,Mostly Cloudy,300,2013-04-11 09:55:00
4:55 AM,14.9,9.0,77,29.93,10.0,NW,5.8,-,N/A,,Mostly Cloudy,310,2013-04-11 10:55:00
5:55 AM,17.1,11.1,77,29.91,10.0,North,9.2,-,N/A,,Clear,350,2013-04-11 11:55:00
6:55 AM,16.9,10.6,76,29.93,10.0,NW,9.2,-,N/A,,Scattered Clouds,320,2013-04-11 12:55:00
7:51 AM,21.2,14.0,74,29.93,2.0,North,5.8,-,N/A,,Haze,360,2013-04-11 13:51:00
7:52 AM,21.2,15.8,80,29.93,1.5,North,5.8,-,N/A,,Scattered Clouds,360,2013-04-11 13:52:00
7:55 AM,21.2,15.3,78,29.93,1.5,Variable,5.8,-,0.00,,Scattered Clouds,0,2013-04-11 13:55:00
8:00 AM,21.2,14.0,74,29.93,1.8,North,6.9,-,N/A,,Partly Cloudy,350,2013-04-11 14:00:00
8:01 AM,21.2,14.0,74,29.93,4.0,North,6.9,-,N/A,,Haze,360,2013-04-11 14:01:00
8:55 AM,21.6,13.1,70,29.92,10.0,North,12.7,-,0.00,,Clear,350,2013-04-11 14:55:00
9:55 AM,21.7,14.7,74,29.94,10.0,North,12.7,-,N/A,,Overcast,360,2013-04-11 15:55:00
10:53 AM,24.8,19.4,80,29.94,9.0,NNW,10.4,-,N/A,Snow,Light Snow,330,2013-04-11 16:53:00
10:55 AM,24.6,18.9,79,29.92,9.0,NW,11.5,-,0.00,Snow,Light Snow,320,2013-04-11 16:55:00
11:49 AM,26.6,21.2,80,29.90,10.0,NNW,13.8,-,N/A,,Overcast,340,2013-04-11 17:49:00
11:55 AM,27.7,20.5,74,29.90,10.0,NNW,13.8,-,0.00,,Overcast,330,2013-04-11 17:55:00
12:55 PM,29.5,21.2,71,29.90,10.0,North,13.8,-,N/A,,Overcast,350,2013-04-11 18:55:00
1:55 PM,29.7,22.6,75,29.90,10.0,North,17.3,-,N/A,,Overcast,10,2013-04-11 19:55:00
2:55 PM,29.5,22.6,76,29.91,10.0,North,18.4,-,N/A,,Overcast,10,2013-04-11 20:55:00
3:55 PM,30.0,21.2,70,29.90,10.0,North,13.8,-,N/A,,Overcast,350,2013-04-11 21:55:00
4:06 PM,30.2,21.2,69,29.90,10.0,North,13.8,21.9,N/A,,Overcast,350,2013-04-11 22:06:00
4:55 PM,32.2,23.4,70,29.90,10.0,North,16.1,-,0.00,Snow,Light Snow,350,2013-04-11 22:55:00
5:24 PM,32.0,23.0,69,29.90,10.0,NNW,17.3,21.9,N/A,,Overcast,330,2013-04-11 23:24:00
5:34 PM,32.0,23.0,69,29.90,10.0,NNW,16.1,-,N/A,Rain,Light Rain,340,2013-04-11 23:34:00
5:45 PM,32.0,23.0,69,29.89,10.0,NW,18.4,-,N/A,,Overcast,320,2013-04-11 23:45:00
5:55 PM,31.5,23.5,73,29.90,10.0,NNW,18.4,-,0.00,,Overcast,330,2013-04-11 23:55:00
6:08 PM,32.0,23.0,69,29.90,10.0,NW,21.9,-,N/A,,Overcast,320,2013-04-12 00:08:00
6:30 PM,30.2,24.8,80,29.91,10.0,NNW,19.6,-,N/A,,Overcast,330,2013-04-12 00:30:00
6:55 PM,31.3,26.8,83,29.90,10.0,NNW,18.4,-,0.00,,Overcast,330,2013-04-12 00:55:00
7:07 PM,30.2,26.6,86,29.91,10.0,NW,18.4,-,N/A,,Overcast,320,2013-04-12 01:07:00
7:16 PM,30.2,28.4,93,29.91,10.0,NW,19.6,-,N/A,,Overcast,320,2013-04-12 01:16:00
7:55 PM,31.6,28.0,87,29.91,10.0,NNW,17.3,-,0.00,,Overcast,330,2013-04-12 01:55:00
8:05 PM,32.0,28.4,87,29.91,10.0,NNW,17.3,-,N/A,,Overcast,330,2013-04-12 02:05:00
8:08 PM,32.0,28.4,87,29.91,10.0,NNW,17.3,-,N/A,,Overcast,330,2013-04-12 02:08:00
8:09 PM,32.0,28.4,87,29.91,10.0,NNW,17.3,-,N/A,,Overcast,330,2013-04-12 02:09:00
8:39 PM,32.0,28.4,87,29.92,10.0,NNW,16.1,-,N/A,,Overcast,330,2013-04-12 02:39:00
8:50 PM,32.0,28.4,87,29.93,10.0,NNW,16.1,-,N/A,,Overcast,340,2013-04-12 02:50:00
8:55 PM,32.7,28.0,83,29.93,10.0,NNW,16.1,-,N/A,,Overcast,330,2013-04-12 02:55:00
9:27 PM,32.0,28.4,87,29.94,10.0,NNW,13.8,-,N/A,,Overcast,340,2013-04-12 03:27:00
9:55 PM,32.2,29.7,90,29.94,10.0,NNW,12.7,-,N/A,,Overcast,330,2013-04-12 03:55:00
10:15 PM,32.0,30.2,93,29.94,10.0,NNW,11.5,-,N/A,,Overcast,330,2013-04-12 04:15:00
10:55 PM,32.5,28.8,86,29.94,10.0,NNW,12.7,-,N/A,,Overcast,340,2013-04-12 04:55:00
11:11 PM,32.0,28.4,87,29.93,10.0,North,10.4,-,N/A,,Overcast,350,2013-04-12 05:11:00
11:49 PM,32.0,26.6,80,29.92,10.0,North,11.5,-,N/A,,Overcast,360,2013-04-12 05:49:00
11:52 PM,32.0,26.6,80,29.92,10.0,North,12.7,-,N/A,,Overcast,360,2013-04-12 05:52:00
11:54 PM,32.0,26.6,80,29.92,10.0,North,12.7,-,N/A,,Overcast,360,2013-04-12 05:54:00
11:55 PM,32.5,27.3,81,29.92,10.0,North,12.7,-,N/A,,Overcast,360,2013-04-12 05:55:00
11:56 PM,32.0,26.6,80,29.92,10.0,North,11.5,-,N/A,,Overcast,360,2013-04-12 05:56:00
11:59 PM,32.0,26.6,80,29.92,10.0,North,10.4,-,N/A,,Overcast,360,2013-04-12 05:59:00